sensor_id;sensor_type;location;lat;lon;timestamp;pressure;altitude;pressure_sealevel;temperature;humidity
55576;BME280;41437;45.478;9.116;2022-07-26T00:03:00;99315.16;;;33.11;38.81
55576;BME280;41437;45.478;9.116;2022-07-26T00:06:01;99336.78;;;33.08;38.71
55576;BME280;41437;45.478;9.116;2022-07-26T00:09:04;99340.06;;;33.07;38.88
55576;BME280;41437;45.478;9.116;2022-07-26T00:12:06;99327.03;;;33.06;39.04
55576;BME280;41437;45.478;9.116;2022-07-26T00:15:08;99319.31;;;33.02;38.66
55576;BME280;41437;45.478;9.116;2022-07-26T00:18:10;99314.84;;;33.01;38.76
55576;BME280;41437;45.478;9.116;2022-07-26T00:21:11;99315.25;;;33.00;38.79
55576;BME280;41437;45.478;9.116;2022-07-26T00:24:14;99315.69;;;32.98;38.92
55576;BME280;41437;45.478;9.116;2022-07-26T00:27:15;99312.47;;;32.96;39.05
55576;BME280;41437;45.478;9.116;2022-07-26T00:30:17;99305.13;;;32.95;39.05
55576;BME280;41437;45.478;9.116;2022-07-26T00:33:18;99318.22;;;32.93;38.84
55576;BME280;41437;45.478;9.116;2022-07-26T00:36:20;99318.63;;;32.91;39.06
55576;BME280;41437;45.478;9.116;2022-07-26T00:39:23;99310.91;;;32.88;39.08
55576;BME280;41437;45.478;9.116;2022-07-26T00:42:24;99305.59;;;32.87;39.08
55576;BME280;41437;45.478;9.116;2022-07-26T00:45:26;99306.03;;;32.85;39.05
55576;BME280;41437;45.478;9.116;2022-07-26T00:48:27;99299.97;;;32.83;39.05
55576;BME280;41437;45.478;9.116;2022-07-26T00:51:29;99299.56;;;32.81;38.97
55576;BME280;41437;45.478;9.116;2022-07-26T00:54:32;99297.94;;;32.80;39.26
55576;BME280;41437;45.478;9.116;2022-07-26T00:57:33;99310.19;;;32.77;39.04
55576;BME280;41437;45.478;9.116;2022-07-26T01:00:35;99306.97;;;32.75;39.30
55576;BME280;41437;45.478;9.116;2022-07-26T01:03:36;99302.13;;;32.72;39.20
55576;BME280;41437;45.478;9.116;2022-07-26T01:06:37;99308.25;;;32.70;39.05
55576;BME280;41437;45.478;9.116;2022-07-26T01:09:41;99304.59;;;32.70;39.21
55576;BME280;41437;45.478;9.116;2022-07-26T01:12:42;99305.44;;;32.67;39.22
55576;BME280;41437;45.478;9.116;2022-07-26T01:15:44;99307.88;;;32.65;39.27
55576;BME280;41437;45.478;9.116;2022-07-26T01:18:45;99304.66;;;32.63;39.19
55576;BME280;41437;45.478;9.116;2022-07-26T01:21:48;99308.75;;;32.62;39.23
55576;BME280;41437;45.478;9.116;2022-07-26T01:24:50;99301.41;;;32.61;39.25
55576;BME280;41437;45.478;9.116;2022-07-26T01:27:52;99303.88;;;32.59;39.20
55576;BME280;41437;45.478;9.116;2022-07-26T01:30:53;99294.97;;;32.57;39.26
55576;BME280;41437;45.478;9.116;2022-07-26T01:33:55;99294.56;;;32.55;39.15
55576;BME280;41437;45.478;9.116;2022-07-26T01:36:58;99295.78;;;32.53;39.22
55576;BME280;41437;45.478;9.116;2022-07-26T01:39:59;99294.19;;;32.52;39.33
55576;BME280;41437;45.478;9.116;2022-07-26T01:43:01;99305.19;;;32.50;39.30
55576;BME280;41437;45.478;9.116;2022-07-26T01:46:02;99304.81;;;32.48;39.33
55576;BME280;41437;45.478;9.116;2022-07-26T01:49:04;99295.06;;;32.46;39.30
55576;BME280;41437;45.478;9.116;2022-07-26T01:52:07;99284.06;;;32.44;39.47
55576;BME280;41437;45.478;9.116;2022-07-26T01:55:09;99275.94;;;32.43;39.16
55576;BME280;41437;45.478;9.116;2022-07-26T01:58:10;99290.63;;;32.41;39.36
55576;BME280;41437;45.478;9.116;2022-07-26T02:01:11;99284.53;;;32.39;39.45
55576;BME280;41437;45.478;9.116;2022-07-26T02:04:13;99287.38;;;32.39;39.55
55576;BME280;41437;45.478;9.116;2022-07-26T02:07:30;99293.91;;;32.36;39.47
55576;BME280;41437;45.478;9.116;2022-07-26T02:10:32;99293.50;;;32.34;39.56
55576;BME280;41437;45.478;9.116;2022-07-26T02:13:47;99291.88;;;32.33;39.52
55576;BME280;41437;45.478;9.116;2022-07-26T02:16:49;99295.97;;;32.32;39.52
55576;BME280;41437;45.478;9.116;2022-07-26T02:19:55;99296.81;;;32.29;39.53
55576;BME280;41437;45.478;9.116;2022-07-26T02:22:58;99288.69;;;32.27;39.32
55576;BME280;41437;45.478;9.116;2022-07-26T02:26:00;99292.78;;;32.26;39.64
55576;BME280;41437;45.478;9.116;2022-07-26T02:29:02;99285.44;;;32.25;39.34
55576;BME280;41437;45.478;9.116;2022-07-26T02:32:04;99285.06;;;32.23;39.60
55576;BME280;41437;45.478;9.116;2022-07-26T02:35:06;99284.25;;;32.23;39.52
55576;BME280;41437;45.478;9.116;2022-07-26T02:38:10;99278.16;;;32.21;39.51
55576;BME280;41437;45.478;9.116;2022-07-26T02:41:11;99269.22;;;32.19;39.68
55576;BME280;41437;45.478;9.116;2022-07-26T02:44:13;99272.47;;;32.17;39.66
55576;BME280;41437;45.478;9.116;2022-07-26T02:47:14;99265.97;;;32.17;39.55
55576;BME280;41437;45.478;9.116;2022-07-26T02:50:16;99266.41;;;32.15;39.64
55576;BME280;41437;45.478;9.116;2022-07-26T02:53:19;99268.03;;;32.13;39.73
55576;BME280;41437;45.478;9.116;2022-07-26T02:56:21;99262.75;;;32.11;39.83
55576;BME280;41437;45.478;9.116;2022-07-26T02:59:22;99265.25;;;32.09;39.63
55576;BME280;41437;45.478;9.116;2022-07-26T03:02:24;99265.63;;;32.08;39.74
55576;BME280;41437;45.478;9.116;2022-07-26T03:05:25;99272.22;;;32.05;39.82
55576;BME280;41437;45.478;9.116;2022-07-26T03:08:28;99264.06;;;32.03;39.93
55576;BME280;41437;45.478;9.116;2022-07-26T03:11:29;99255.94;;;32.01;39.77
55576;BME280;41437;45.478;9.116;2022-07-26T03:14:31;99268.56;;;32.00;39.79
55576;BME280;41437;45.478;9.116;2022-07-26T03:17:32;99259.63;;;31.98;39.87
55576;BME280;41437;45.478;9.116;2022-07-26T03:20:34;99264.94;;;31.96;39.90
55576;BME280;41437;45.478;9.116;2022-07-26T03:23:37;99257.59;;;31.95;39.78
55576;BME280;41437;45.478;9.116;2022-07-26T03:26:38;99258.03;;;31.94;39.70
55576;BME280;41437;45.478;9.116;2022-07-26T03:29:39;99267.00;;;31.92;39.70
55576;BME280;41437;45.478;9.116;2022-07-26T03:32:41;99275.16;;;31.90;40.03
55576;BME280;41437;45.478;9.116;2022-07-26T03:35:42;99275.56;;;31.89;39.89
55576;BME280;41437;45.478;9.116;2022-07-26T03:38:45;99278.03;;;31.87;40.10
55576;BME280;41437;45.478;9.116;2022-07-26T03:41:47;99278.44;;;31.85;39.88
55576;BME280;41437;45.478;9.116;2022-07-26T03:44:48;99269.53;;;31.83;39.97
55576;BME280;41437;45.478;9.116;2022-07-26T03:47:49;99269.91;;;31.82;40.11
55576;BME280;41437;45.478;9.116;2022-07-26T03:50:52;99276.81;;;31.81;40.06
55576;BME280;41437;45.478;9.116;2022-07-26T03:53:55;99261.38;;;31.78;39.84
55576;BME280;41437;45.478;9.116;2022-07-26T03:56:56;99278.47;;;31.78;40.09
55576;BME280;41437;45.478;9.116;2022-07-26T03:59:58;99267.13;;;31.74;39.93
55576;BME280;41437;45.478;9.116;2022-07-26T04:02:59;99259.78;;;31.73;40.11
55576;BME280;41437;45.478;9.116;2022-07-26T04:06:01;99258.97;;;31.73;40.18
55576;BME280;41437;45.478;9.116;2022-07-26T04:09:04;99272.41;;;31.72;40.01
55576;BME280;41437;45.478;9.116;2022-07-26T04:12:06;99275.69;;;31.71;40.07
55576;BME280;41437;45.478;9.116;2022-07-26T04:15:08;99268.78;;;31.68;40.11
55576;BME280;41437;45.478;9.116;2022-07-26T04:18:09;99270.44;;;31.66;40.10
55576;BME280;41437;45.478;9.116;2022-07-26T04:21:13;99270.44;;;31.66;40.20
55576;BME280;41437;45.478;9.116;2022-07-26T04:24:16;99258.63;;;31.64;40.24
55576;BME280;41437;45.478;9.116;2022-07-26T04:27:17;99259.06;;;31.62;39.93
55576;BME280;41437;45.478;9.116;2022-07-26T04:30:18;99256.63;;;31.61;39.91
55576;BME280;41437;45.478;9.116;2022-07-26T04:33:20;99260.69;;;31.60;40.03
55576;BME280;41437;45.478;9.116;2022-07-26T04:36:21;99263.97;;;31.58;40.11
55576;BME280;41437;45.478;9.116;2022-07-26T04:39:24;99258.72;;;31.57;39.97
55576;BME280;41437;45.478;9.116;2022-07-26T04:42:25;99265.59;;;31.56;40.14
55576;BME280;41437;45.478;9.116;2022-07-26T04:45:27;99266.84;;;31.54;40.13
55576;BME280;41437;45.478;9.116;2022-07-26T04:48:29;99272.97;;;31.53;39.98
55576;BME280;41437;45.478;9.116;2022-07-26T04:51:30;99285.56;;;31.52;40.24
55576;BME280;41437;45.478;9.116;2022-07-26T04:54:33;99287.22;;;31.49;40.15
55576;BME280;41437;45.478;9.116;2022-07-26T04:57:34;99296.56;;;31.50;40.11
55576;BME280;41437;45.478;9.116;2022-07-26T05:00:36;99294.53;;;31.47;40.18
55576;BME280;41437;45.478;9.116;2022-07-26T05:03:38;99298.63;;;31.46;40.12
55576;BME280;41437;45.478;9.116;2022-07-26T05:06:39;99301.91;;;31.44;40.21
55576;BME280;41437;45.478;9.116;2022-07-26T05:09:42;99291.72;;;31.43;40.11
55576;BME280;41437;45.478;9.116;2022-07-26T05:12:44;99294.16;;;31.41;40.25
55576;BME280;41437;45.478;9.116;2022-07-26T05:15:45;99301.09;;;31.40;40.31
55576;BME280;41437;45.478;9.116;2022-07-26T05:18:46;99298.25;;;31.40;40.32
55576;BME280;41437;45.478;9.116;2022-07-26T05:21:48;99297.84;;;31.38;40.27
55576;BME280;41437;45.478;9.116;2022-07-26T05:24:51;99301.91;;;31.37;40.25
55576;BME280;41437;45.478;9.116;2022-07-26T05:27:53;99296.22;;;31.37;40.22
55576;BME280;41437;45.478;9.116;2022-07-26T05:30:54;99297.47;;;31.36;40.32
55576;BME280;41437;45.478;9.116;2022-07-26T05:33:56;99295.84;;;31.35;40.25
55576;BME280;41437;45.478;9.116;2022-07-26T05:36:57;99297.88;;;31.35;40.29
55576;BME280;41437;45.478;9.116;2022-07-26T05:40:00;99304.78;;;31.34;40.33
55576;BME280;41437;45.478;9.116;2022-07-26T05:43:02;99299.09;;;31.34;40.32
55576;BME280;41437;45.478;9.116;2022-07-26T05:46:03;99303.16;;;31.33;40.29
55576;BME280;41437;45.478;9.116;2022-07-26T05:49:05;99308.06;;;31.32;40.37
55576;BME280;41437;45.478;9.116;2022-07-26T05:52:06;99296.66;;;31.32;40.46
55576;BME280;41437;45.478;9.116;2022-07-26T05:55:10;99302.38;;;31.32;40.23
55576;BME280;41437;45.478;9.116;2022-07-26T05:58:11;99301.56;;;31.32;40.39
55576;BME280;41437;45.478;9.116;2022-07-26T06:01:13;99300.75;;;31.31;40.35
55576;BME280;41437;45.478;9.116;2022-07-26T06:04:14;99303.59;;;31.31;40.38
55576;BME280;41437;45.478;9.116;2022-07-26T06:07:15;99308.06;;;31.32;40.62
55576;BME280;41437;45.478;9.116;2022-07-26T06:10:18;99300.75;;;31.31;40.36
55576;BME280;41437;45.478;9.116;2022-07-26T06:13:20;99299.94;;;31.31;40.56
55576;BME280;41437;45.478;9.116;2022-07-26T06:16:21;99299.09;;;31.30;40.40
55576;BME280;41437;45.478;9.116;2022-07-26T06:19:23;99294.25;;;31.31;40.65
55576;BME280;41437;45.478;9.116;2022-07-26T06:22:25;99288.56;;;31.31;40.70
55576;BME280;41437;45.478;9.116;2022-07-26T06:25:27;99297.09;;;31.31;40.71
55576;BME280;41437;45.478;9.116;2022-07-26T06:28:29;99290.16;;;31.32;40.75
55576;BME280;41437;45.478;9.116;2022-07-26T06:31:30;99296.66;;;31.32;40.68
55576;BME280;41437;45.478;9.116;2022-07-26T06:34:32;99293.81;;;31.32;40.83
55576;BME280;41437;45.478;9.116;2022-07-26T06:37:34;99291.78;;;31.33;40.79
55576;BME280;41437;45.478;9.116;2022-07-26T06:40:37;99295.44;;;31.33;40.92
55576;BME280;41437;45.478;9.116;2022-07-26T06:43:39;99287.69;;;31.34;40.78
55576;BME280;41437;45.478;9.116;2022-07-26T06:46:55;99292.19;;;31.35;41.01
55576;BME280;41437;45.478;9.116;2022-07-26T06:49:57;99290.16;;;31.35;40.90
55576;BME280;41437;45.478;9.116;2022-07-26T06:52:58;99293.00;;;31.35;40.91
55576;BME280;41437;45.478;9.116;2022-07-26T06:56:01;99293.38;;;31.37;41.05
55576;BME280;41437;45.478;9.116;2022-07-26T06:59:03;99296.22;;;31.37;40.99
55576;BME280;41437;45.478;9.116;2022-07-26T07:02:04;99295.00;;;31.38;41.07
55576;BME280;41437;45.478;9.116;2022-07-26T07:05:06;99283.59;;;31.38;41.19
55576;BME280;41437;45.478;9.116;2022-07-26T07:08:07;99281.16;;;31.40;41.27
55576;BME280;41437;45.478;9.116;2022-07-26T07:11:10;99281.97;;;31.41;41.22
55576;BME280;41437;45.478;9.116;2022-07-26T07:14:11;99280.75;;;31.42;41.34
55576;BME280;41437;45.478;9.116;2022-07-26T07:17:16;99280.75;;;31.42;41.39
55576;BME280;41437;45.478;9.116;2022-07-26T07:20:18;99268.94;;;31.43;41.25
55576;BME280;41437;45.478;9.116;2022-07-26T07:23:20;99272.19;;;31.45;41.26
55576;BME280;41437;45.478;9.116;2022-07-26T07:26:23;99270.16;;;31.46;41.33
55576;BME280;41437;45.478;9.116;2022-07-26T07:29:25;99274.59;;;31.47;41.52
55576;BME280;41437;45.478;9.116;2022-07-26T07:32:26;99263.22;;;31.47;41.54
55576;BME280;41437;45.478;9.116;2022-07-26T07:35:28;99270.56;;;31.48;41.26
55576;BME280;41437;45.478;9.116;2022-07-26T07:38:29;99266.47;;;31.49;41.70
55576;BME280;41437;45.478;9.116;2022-07-26T07:41:32;99261.59;;;31.49;41.77
55576;BME280;41437;45.478;9.116;2022-07-26T07:44:35;99272.97;;;31.49;41.76
55576;BME280;41437;45.478;9.116;2022-07-26T07:47:36;99264.81;;;31.51;41.59
55576;BME280;41437;45.478;9.116;2022-07-26T07:50:38;99272.16;;;31.52;41.56
55576;BME280;41437;45.478;9.116;2022-07-26T07:53:39;99261.16;;;31.54;41.75
55576;BME280;41437;45.478;9.116;2022-07-26T07:56:42;99267.66;;;31.55;41.73
55576;BME280;41437;45.478;9.116;2022-07-26T07:59:44;99266.84;;;31.54;41.66
55576;BME280;41437;45.478;9.116;2022-07-26T08:02:45;99264.41;;;31.57;41.70
55576;BME280;41437;45.478;9.116;2022-07-26T08:05:47;99259.09;;;31.59;41.61
55576;BME280;41437;45.478;9.116;2022-07-26T08:08:48;99260.69;;;31.60;41.69
55576;BME280;41437;45.478;9.116;2022-07-26T08:11:51;99261.50;;;31.60;41.89
55576;BME280;41437;45.478;9.116;2022-07-26T08:14:53;99258.25;;;31.62;41.72
55576;BME280;41437;45.478;9.116;2022-07-26T08:17:54;99259.06;;;31.62;41.49
55576;BME280;41437;45.478;9.116;2022-07-26T08:20:56;99249.28;;;31.63;41.58
55576;BME280;41437;45.478;9.116;2022-07-26T08:23:58;99257.41;;;31.65;41.53
55576;BME280;41437;45.478;9.116;2022-07-26T08:27:01;99257.41;;;31.65;41.29
55576;BME280;41437;45.478;9.116;2022-07-26T08:30:02;99253.34;;;31.66;41.38
55576;BME280;41437;45.478;9.116;2022-07-26T08:33:04;99254.16;;;31.66;41.24
55576;BME280;41437;45.478;9.116;2022-07-26T08:36:07;99252.50;;;31.69;41.25
55576;BME280;41437;45.478;9.116;2022-07-26T08:39:08;99247.22;;;31.71;41.42
55576;BME280;41437;45.478;9.116;2022-07-26T08:42:14;99248.81;;;31.72;41.49
55576;BME280;41437;45.478;9.116;2022-07-26T08:45:19;99246.78;;;31.72;41.38
55576;BME280;41437;45.478;9.116;2022-07-26T08:48:21;99241.88;;;31.73;41.26
55576;BME280;41437;45.478;9.116;2022-07-26T08:51:23;99241.06;;;31.76;41.32
55576;BME280;41437;45.478;9.116;2022-07-26T08:54:24;99242.66;;;31.77;41.11
55576;BME280;41437;45.478;9.116;2022-07-26T08:57:28;99247.13;;;31.78;41.27
55576;BME280;41437;45.478;9.116;2022-07-26T09:00:30;99241.84;;;31.80;41.21
55576;BME280;41437;45.478;9.116;2022-07-26T09:03:32;99242.66;;;31.81;41.46
55576;BME280;41437;45.478;9.116;2022-07-26T09:06:36;99248.75;;;31.83;41.25
55576;BME280;41437;45.478;9.116;2022-07-26T09:09:38;99244.69;;;31.84;41.19
55576;BME280;41437;45.478;9.116;2022-07-26T09:12:42;99239.38;;;31.86;41.24
55576;BME280;41437;45.478;9.116;2022-07-26T09:15:43;99241.81;;;31.87;41.24
55576;BME280;41437;45.478;9.116;2022-07-26T09:18:45;99240.16;;;31.90;41.18
55576;BME280;41437;45.478;9.116;2022-07-26T09:21:47;99239.75;;;31.91;41.24
55576;BME280;41437;45.478;9.116;2022-07-26T09:24:48;99237.72;;;31.92;41.23
55576;BME280;41437;45.478;9.116;2022-07-26T09:27:51;99238.88;;;31.94;41.15
55576;BME280;41437;45.478;9.116;2022-07-26T09:30:53;99226.25;;;31.95;41.09
55576;BME280;41437;45.478;9.116;2022-07-26T09:33:55;99235.22;;;31.97;41.33
55576;BME280;41437;45.478;9.116;2022-07-26T09:36:58;99229.88;;;31.99;41.47
55576;BME280;41437;45.478;9.116;2022-07-26T09:39:59;99231.91;;;32.02;41.36
55576;BME280;41437;45.478;9.116;2022-07-26T09:43:03;99229.47;;;32.05;41.53
55576;BME280;41437;45.478;9.116;2022-07-26T09:46:05;99235.16;;;32.05;41.63
55576;BME280;41437;45.478;9.116;2022-07-26T09:49:15;99231.44;;;32.08;41.78
55576;BME280;41437;45.478;9.116;2022-07-26T09:52:17;99224.50;;;32.09;41.89
55576;BME280;41437;45.478;9.116;2022-07-26T09:55:19;99237.91;;;32.12;41.87
55576;BME280;41437;45.478;9.116;2022-07-26T09:58:22;99219.59;;;32.13;41.99
55576;BME280;41437;45.478;9.116;2022-07-26T10:01:25;99219.19;;;32.14;42.07
55576;BME280;41437;45.478;9.116;2022-07-26T10:04:26;99220.34;;;32.17;41.85
55576;BME280;41437;45.478;9.116;2022-07-26T10:07:28;99222.81;;;32.18;42.02
55576;BME280;41437;45.478;9.116;2022-07-26T10:10:31;99229.69;;;32.21;42.15
55576;BME280;41437;45.478;9.116;2022-07-26T10:13:35;99218.69;;;32.23;42.40
55576;BME280;41437;45.478;9.116;2022-07-26T10:16:37;99217.00;;;32.25;42.62
55576;BME280;41437;45.478;9.116;2022-07-26T10:19:39;99223.53;;;32.26;42.64
55576;BME280;41437;45.478;9.116;2022-07-26T10:22:41;99215.38;;;32.28;42.79
55576;BME280;41437;45.478;9.116;2022-07-26T10:25:44;99223.09;;;32.31;42.78
55576;BME280;41437;45.478;9.116;2022-07-26T10:28:47;99222.22;;;32.34;42.83
55576;BME280;41437;45.478;9.116;2022-07-26T10:31:48;99214.47;;;32.35;42.77
55576;BME280;41437;45.478;9.116;2022-07-26T10:34:50;99213.66;;;32.38;42.85
55576;BME280;41437;45.478;9.116;2022-07-26T10:37:56;99214.47;;;32.38;42.91
55576;BME280;41437;45.478;9.116;2022-07-26T10:40:59;99207.94;;;32.41;42.94
55576;BME280;41437;45.478;9.116;2022-07-26T10:44:15;99212.78;;;32.44;43.21
55576;BME280;41437;45.478;9.116;2022-07-26T10:47:17;99206.66;;;32.46;43.15
55576;BME280;41437;45.478;9.116;2022-07-26T10:50:20;99203.75;;;32.49;43.22
55576;BME280;41437;45.478;9.116;2022-07-26T10:53:32;99201.28;;;32.51;43.27
55576;BME280;41437;45.478;9.116;2022-07-26T10:56:34;99201.69;;;32.53;43.14
55576;BME280;41437;45.478;9.116;2022-07-26T10:59:37;99208.56;;;32.56;43.12
55576;BME280;41437;45.478;9.116;2022-07-26T11:02:39;99195.94;;;32.57;43.22
55576;BME280;41437;45.478;9.116;2022-07-26T11:05:42;99194.25;;;32.60;43.25
55576;BME280;41437;45.478;9.116;2022-07-26T11:08:44;99196.28;;;32.63;43.16
55576;BME280;41437;45.478;9.116;2022-07-26T11:11:46;99195.44;;;32.66;43.11
55576;BME280;41437;45.478;9.116;2022-07-26T11:14:49;99184.81;;;32.66;43.31
55576;BME280;41437;45.478;9.116;2022-07-26T11:17:50;99177.44;;;32.69;43.10
55576;BME280;41437;45.478;9.116;2022-07-26T11:20:52;99177.84;;;32.71;43.32
55576;BME280;41437;45.478;9.116;2022-07-26T11:23:57;99176.16;;;32.73;43.28
55576;BME280;41437;45.478;9.116;2022-07-26T11:27:02;99189.56;;;32.76;43.15
55576;BME280;41437;45.478;9.116;2022-07-26T11:30:05;99173.66;;;32.79;43.25
55576;BME280;41437;45.478;9.116;2022-07-26T11:33:07;99177.69;;;32.82;43.40
55576;BME280;41437;45.478;9.116;2022-07-26T11:36:08;99171.56;;;32.83;43.41
55576;BME280;41437;45.478;9.116;2022-07-26T11:39:10;99174.34;;;32.87;43.38
55576;BME280;41437;45.478;9.116;2022-07-26T11:42:13;99158.44;;;32.89;43.39
55576;BME280;41437;45.478;9.116;2022-07-26T11:45:19;99158.81;;;32.91;43.49
55576;BME280;41437;45.478;9.116;2022-07-26T11:48:21;99151.47;;;32.94;43.34
55576;BME280;41437;45.478;9.116;2022-07-26T11:51:22;99162.84;;;32.97;43.49
55576;BME280;41437;45.478;9.116;2022-07-26T11:54:25;99150.97;;;32.99;43.53
55576;BME280;41437;45.478;9.116;2022-07-26T11:57:27;99150.94;;;33.02;43.43
55576;BME280;41437;45.478;9.116;2022-07-26T12:00:30;99145.97;;;33.07;43.24
55576;BME280;41437;45.478;9.116;2022-07-26T12:03:32;99148.41;;;33.08;43.18
55576;BME280;41437;45.478;9.116;2022-07-26T12:06:37;99141.03;;;33.11;43.21
55576;BME280;41437;45.478;9.116;2022-07-26T12:09:39;99143.03;;;33.14;42.87
55576;BME280;41437;45.478;9.116;2022-07-26T12:12:40;99140.94;;;33.18;43.03
55576;BME280;41437;45.478;9.116;2022-07-26T12:15:44;99130.31;;;33.18;43.29
55576;BME280;41437;45.478;9.116;2022-07-26T12:18:49;99131.88;;;33.23;43.14
55576;BME280;41437;45.478;9.116;2022-07-26T12:21:51;99131.00;;;33.26;43.09
55576;BME280;41437;45.478;9.116;2022-07-26T12:24:54;99128.53;;;33.28;42.90
55576;BME280;41437;45.478;9.116;2022-07-26T12:27:56;99127.66;;;33.31;43.28
55576;BME280;41437;45.478;9.116;2022-07-26T12:30:59;99125.19;;;33.33;43.00
55576;BME280;41437;45.478;9.116;2022-07-26T12:34:01;99113.69;;;33.37;43.33
55576;BME280;41437;45.478;9.116;2022-07-26T12:37:09;99114.88;;;33.39;43.04
55576;BME280;41437;45.478;9.116;2022-07-26T12:40:11;99111.97;;;33.43;42.68
55576;BME280;41437;45.478;9.116;2022-07-26T12:43:15;99111.13;;;33.46;42.92
55576;BME280;41437;45.478;9.116;2022-07-26T12:46:17;99110.28;;;33.49;42.87
55576;BME280;41437;45.478;9.116;2022-07-26T12:49:19;99099.19;;;33.51;42.76
55576;BME280;41437;45.478;9.116;2022-07-26T12:52:21;99101.19;;;33.54;42.73
55576;BME280;41437;45.478;9.116;2022-07-26T12:55:23;99093.78;;;33.57;42.87
55576;BME280;41437;45.478;9.116;2022-07-26T12:58:25;99095.78;;;33.60;42.70
55576;BME280;41437;45.478;9.116;2022-07-26T13:01:27;99094.94;;;33.63;42.63
55576;BME280;41437;45.478;9.116;2022-07-26T13:04:29;99094.06;;;33.66;42.53
55576;BME280;41437;45.478;9.116;2022-07-26T13:07:30;99097.28;;;33.68;42.52
55576;BME280;41437;45.478;9.116;2022-07-26T13:10:32;99093.56;;;33.71;42.67
55576;BME280;41437;45.478;9.116;2022-07-26T13:13:34;99086.94;;;33.74;42.49
55576;BME280;41437;45.478;9.116;2022-07-26T13:16:36;99086.09;;;33.77;42.38
55576;BME280;41437;45.478;9.116;2022-07-26T13:19:38;99088.06;;;33.80;42.36
55576;BME280;41437;45.478;9.116;2022-07-26T13:22:39;99081.91;;;33.82;42.28
55576;BME280;41437;45.478;9.116;2022-07-26T13:25:41;99082.66;;;33.86;42.12
55576;BME280;41437;45.478;9.116;2022-07-26T13:28:42;99081.00;;;33.88;42.13
55576;BME280;41437;45.478;9.116;2022-07-26T13:31:45;99077.22;;;33.91;42.07
55576;BME280;41437;45.478;9.116;2022-07-26T13:34:47;99080.84;;;33.95;41.62
55576;BME280;41437;45.478;9.116;2022-07-26T13:37:48;99068.56;;;33.98;41.16
55576;BME280;41437;45.478;9.116;2022-07-26T13:40:50;99065.25;;;34.00;41.56
55576;BME280;41437;45.478;9.116;2022-07-26T13:43:51;99075.81;;;34.03;41.60
55576;BME280;41437;45.478;9.116;2022-07-26T13:46:54;99065.56;;;34.06;41.71
55576;BME280;41437;45.478;9.116;2022-07-26T13:49:55;99056.09;;;34.09;41.54
55576;BME280;41437;45.478;9.116;2022-07-26T13:52:57;99061.75;;;34.12;41.06
55576;BME280;41437;45.478;9.116;2022-07-26T13:55:59;99060.88;;;34.15;41.09
55576;BME280;41437;45.478;9.116;2022-07-26T13:59:00;99070.63;;;34.18;41.20
55576;BME280;41437;45.478;9.116;2022-07-26T14:02:03;99057.03;;;34.22;40.54
55576;BME280;41437;45.478;9.116;2022-07-26T14:05:05;99050.91;;;34.23;40.90
55576;BME280;41437;45.478;9.116;2022-07-26T14:08:06;99050.84;;;34.27;40.16
55576;BME280;41437;45.478;9.116;2022-07-26T14:11:07;99049.94;;;34.30;40.76
55576;BME280;41437;45.478;9.116;2022-07-26T14:14:09;99059.69;;;34.33;40.20
55576;BME280;41437;45.478;9.116;2022-07-26T14:17:12;99046.56;;;34.35;40.28
55576;BME280;41437;45.478;9.116;2022-07-26T14:20:13;99052.66;;;34.37;40.73
55576;BME280;41437;45.478;9.116;2022-07-26T14:23:15;99048.91;;;34.40;40.64
55576;BME280;41437;45.478;9.116;2022-07-26T14:26:17;99045.59;;;34.42;40.38
55576;BME280;41437;45.478;9.116;2022-07-26T14:29:19;99045.53;;;34.45;40.44
55576;BME280;41437;45.478;9.116;2022-07-26T14:32:21;99045.91;;;34.47;40.22
55576;BME280;41437;45.478;9.116;2022-07-26T14:35:23;99042.16;;;34.50;40.17
55576;BME280;41437;45.478;9.116;2022-07-26T14:38:24;99047.00;;;34.54;40.17
55576;BME280;41437;45.478;9.116;2022-07-26T14:41:27;99043.25;;;34.57;40.19
55576;BME280;41437;45.478;9.116;2022-07-26T14:44:29;99049.34;;;34.59;39.92
55576;BME280;41437;45.478;9.116;2022-07-26T14:47:31;99050.53;;;34.61;39.88
55576;BME280;41437;45.478;9.116;2022-07-26T14:50:33;99045.94;;;34.64;39.89
55576;BME280;41437;45.478;9.116;2022-07-26T14:53:34;99042.63;;;34.65;39.76
55576;BME280;41437;45.478;9.116;2022-07-26T14:56:36;99035.22;;;34.68;39.69
55576;BME280;41437;45.478;9.116;2022-07-26T14:59:37;99022.09;;;34.70;39.81
55576;BME280;41437;45.478;9.116;2022-07-26T15:02:40;99026.13;;;34.73;39.76
55576;BME280;41437;45.478;9.116;2022-07-26T15:05:42;99023.63;;;34.75;39.68
55576;BME280;41437;45.478;9.116;2022-07-26T15:08:44;99033.38;;;34.78;39.56
55576;BME280;41437;45.478;9.116;2022-07-26T15:11:46;99034.97;;;34.79;39.57
55576;BME280;41437;45.478;9.116;2022-07-26T15:14:48;99026.31;;;34.82;39.53
55576;BME280;41437;45.478;9.116;2022-07-26T15:17:51;99020.97;;;34.84;39.70
55576;BME280;41437;45.478;9.116;2022-07-26T15:20:53;99024.97;;;34.87;39.37
55576;BME280;41437;45.478;9.116;2022-07-26T15:23:54;99031.06;;;34.89;39.29
55576;BME280;41437;45.478;9.116;2022-07-26T15:26:55;99022.81;;;34.91;39.23
55576;BME280;41437;45.478;9.116;2022-07-26T15:29:57;99020.34;;;34.93;39.33
55576;BME280;41437;45.478;9.116;2022-07-26T15:33:00;99019.06;;;34.94;39.17
55576;BME280;41437;45.478;9.116;2022-07-26T15:36:02;99019.03;;;34.97;39.38
55576;BME280;41437;45.478;9.116;2022-07-26T15:39:04;99022.22;;;34.99;39.40
55576;BME280;41437;45.478;9.116;2022-07-26T15:42:05;99009.56;;;35.00;39.14
55576;BME280;41437;45.478;9.116;2022-07-26T15:45:08;99003.72;;;35.04;39.45
55576;BME280;41437;45.478;9.116;2022-07-26T15:48:11;99003.28;;;35.06;39.33
55576;BME280;41437;45.478;9.116;2022-07-26T15:51:13;99009.34;;;35.08;39.06
55576;BME280;41437;45.478;9.116;2022-07-26T15:54:14;99006.88;;;35.10;39.11
55576;BME280;41437;45.478;9.116;2022-07-26T15:57:16;99005.16;;;35.12;39.19
55576;BME280;41437;45.478;9.116;2022-07-26T16:00:17;99014.91;;;35.15;39.04
55576;BME280;41437;45.478;9.116;2022-07-26T16:03:20;99006.66;;;35.17;38.86
55576;BME280;41437;45.478;9.116;2022-07-26T16:06:21;99011.16;;;35.18;38.97